sensor_id;sensor_type;location;lat;lon;timestamp;P1;durP1;ratioP1;P2;durP2;ratioP2
52964;SDS011;42923;53.220;6.528;2023-04-26T00:01:29;12.43;;;3.10;;
52964;SDS011;42923;53.220;6.528;2023-04-26T00:03:54;11.77;;;2.85;;
52964;SDS011;42923;53.220;6.528;2023-04-26T00:06:21;12.30;;;3.70;;
52964;SDS011;42923;53.220;6.528;2023-04-26T00:08:47;7.50;;;2.20;;
52964;SDS011;42923;53.220;6.528;2023-04-26T00:11:12;3.88;;;2.45;;
52964;SDS011;42923;53.220;6.528;2023-04-26T00:13:38;9.95;;;3.53;;
52964;SDS011;42923;53.220;6.528;2023-04-26T00:16:04;8.60;;;2.65;;
52964;SDS011;42923;53.220;6.528;2023-04-26T00:18:30;12.23;;;3.22;;
52964;SDS011;42923;53.220;6.528;2023-04-26T00:20:56;6.30;;;2.70;;
52964;SDS011;42923;53.220;6.528;2023-04-26T00:23:22;6.15;;;3.05;;
52964;SDS011;42923;53.220;6.528;2023-04-26T00:25:48;8.40;;;2.55;;
52964;SDS011;42923;53.220;6.528;2023-04-26T00:28:14;7.53;;;2.60;;
52964;SDS011;42923;53.220;6.528;2023-04-26T00:30:40;8.02;;;3.15;;
52964;SDS011;42923;53.220;6.528;2023-04-26T00:33:11;6.20;;;2.67;;
52964;SDS011;42923;53.220;6.528;2023-04-26T00:35:38;7.03;;;2.70;;
52964;SDS011;42923;53.220;6.528;2023-04-26T00:38:04;5.30;;;3.72;;
52964;SDS011;42923;53.220;6.528;2023-04-26T00:40:30;10.27;;;4.30;;
52964;SDS011;42923;53.220;6.528;2023-04-26T00:42:59;16.23;;;3.67;;
52964;SDS011;42923;53.220;6.528;2023-04-26T00:45:25;8.45;;;2.80;;
52964;SDS011;42923;53.220;6.528;2023-04-26T00:47:51;6.53;;;2.50;;
52964;SDS011;42923;53.220;6.528;2023-04-26T00:50:17;8.82;;;2.75;;
52964;SDS011;42923;53.220;6.528;2023-04-26T00:52:44;7.88;;;2.53;;
52964;SDS011;42923;53.220;6.528;2023-04-26T00:55:11;6.38;;;2.58;;
52964;SDS011;42923;53.220;6.528;2023-04-26T00:57:38;8.57;;;3.13;;
52964;SDS011;42923;53.220;6.528;2023-04-26T01:00:04;9.77;;;3.30;;
52964;SDS011;42923;53.220;6.528;2023-04-26T01:02:30;5.90;;;2.70;;
52964;SDS011;42923;53.220;6.528;2023-04-26T01:04:56;7.65;;;2.97;;
52964;SDS011;42923;53.220;6.528;2023-04-26T01:07:22;12.88;;;3.50;;
52964;SDS011;42923;53.220;6.528;2023-04-26T01:09:48;9.23;;;3.33;;
52964;SDS011;42923;53.220;6.528;2023-04-26T01:12:14;9.48;;;3.30;;
52964;SDS011;42923;53.220;6.528;2023-04-26T01:14:41;9.85;;;3.40;;
52964;SDS011;42923;53.220;6.528;2023-04-26T01:17:08;11.90;;;2.88;;
52964;SDS011;42923;53.220;6.528;2023-04-26T01:19:33;6.95;;;2.90;;
52964;SDS011;42923;53.220;6.528;2023-04-26T01:22:02;10.07;;;2.80;;
52964;SDS011;42923;53.220;6.528;2023-04-26T01:24:28;8.93;;;3.03;;
52964;SDS011;42923;53.220;6.528;2023-04-26T01:26:54;6.90;;;3.20;;
52964;SDS011;42923;53.220;6.528;2023-04-26T01:29:21;9.02;;;2.88;;
52964;SDS011;42923;53.220;6.528;2023-04-26T01:31:48;9.82;;;3.20;;
52964;SDS011;42923;53.220;6.528;2023-04-26T01:34:14;12.30;;;4.18;;
52964;SDS011;42923;53.220;6.528;2023-04-26T01:36:40;11.15;;;3.50;;
52964;SDS011;42923;53.220;6.528;2023-04-26T01:39:06;11.23;;;4.10;;
52964;SDS011;42923;53.220;6.528;2023-04-26T01:41:33;6.68;;;2.95;;
52964;SDS011;42923;53.220;6.528;2023-04-26T01:43:59;7.55;;;2.90;;
52964;SDS011;42923;53.220;6.528;2023-04-26T01:46:25;14.35;;;3.92;;
52964;SDS011;42923;53.220;6.528;2023-04-26T01:48:51;10.27;;;3.42;;
52964;SDS011;42923;53.220;6.528;2023-04-26T01:51:16;8.13;;;3.05;;
52964;SDS011;42923;53.220;6.528;2023-04-26T01:53:42;10.75;;;3.78;;
52964;SDS011;42923;53.220;6.528;2023-04-26T01:56:08;12.55;;;4.35;;
52964;SDS011;42923;53.220;6.528;2023-04-26T01:58:35;10.70;;;3.20;;
52964;SDS011;42923;53.220;6.528;2023-04-26T02:01:05;10.48;;;4.20;;
52964;SDS011;42923;53.220;6.528;2023-04-26T02:03:32;7.10;;;3.25;;
52964;SDS011;42923;53.220;6.528;2023-04-26T02:05:58;8.65;;;3.45;;
52964;SDS011;42923;53.220;6.528;2023-04-26T02:08:25;7.82;;;2.85;;
52964;SDS011;42923;53.220;6.528;2023-04-26T02:10:50;4.95;;;2.15;;
52964;SDS011;42923;53.220;6.528;2023-04-26T02:13:16;11.93;;;3.67;;
52964;SDS011;42923;53.220;6.528;2023-04-26T02:15:47;6.95;;;2.60;;
52964;SDS011;42923;53.220;6.528;2023-04-26T02:18:13;6.10;;;3.22;;
52964;SDS011;42923;53.220;6.528;2023-04-26T02:20:43;6.78;;;2.83;;
52964;SDS011;42923;53.220;6.528;2023-04-26T02:23:10;10.23;;;3.05;;
52964;SDS011;42923;53.220;6.528;2023-04-26T02:25:36;6.50;;;2.70;;
52964;SDS011;42923;53.220;6.528;2023-04-26T02:28:03;9.43;;;2.60;;
52964;SDS011;42923;53.220;6.528;2023-04-26T02:30:30;10.15;;;2.70;;
52964;SDS011;42923;53.220;6.528;2023-04-26T02:32:56;8.93;;;2.80;;
52964;SDS011;42923;53.220;6.528;2023-04-26T02:35:22;8.63;;;2.80;;
52964;SDS011;42923;53.220;6.528;2023-04-26T02:37:48;7.72;;;2.40;;
52964;SDS011;42923;53.220;6.528;2023-04-26T02:40:17;14.95;;;2.97;;
52964;SDS011;42923;53.220;6.528;2023-04-26T02:42:43;6.63;;;2.60;;
52964;SDS011;42923;53.220;6.528;2023-04-26T02:45:09;9.68;;;2.97;;
52964;SDS011;42923;53.220;6.528;2023-04-26T02:47:35;10.27;;;2.95;;
52964;SDS011;42923;53.220;6.528;2023-04-26T02:50:03;8.45;;;2.50;;
52964;SDS011;42923;53.220;6.528;2023-04-26T02:52:30;13.82;;;2.65;;
52964;SDS011;42923;53.220;6.528;2023-04-26T02:54:56;5.38;;;2.67;;
52964;SDS011;42923;53.220;6.528;2023-04-26T02:57:22;11.27;;;3.40;;
52964;SDS011;42923;53.220;6.528;2023-04-26T02:59:49;11.40;;;3.55;;
52964;SDS011;42923;53.220;6.528;2023-04-26T03:02:15;8.25;;;2.60;;
52964;SDS011;42923;53.220;6.528;2023-04-26T03:04:40;8.65;;;2.88;;
52964;SDS011;42923;53.220;6.528;2023-04-26T03:07:06;3.60;;;2.42;;
52964;SDS011;42923;53.220;6.528;2023-04-26T03:09:32;11.43;;;3.00;;
52964;SDS011;42923;53.220;6.528;2023-04-26T03:11:59;8.77;;;3.20;;
52964;SDS011;42923;53.220;6.528;2023-04-26T03:14:25;6.43;;;2.13;;
52964;SDS011;42923;53.220;6.528;2023-04-26T03:16:52;20.83;;;4.15;;
52964;SDS011;42923;53.220;6.528;2023-04-26T03:19:19;10.90;;;2.67;;
52964;SDS011;42923;53.220;6.528;2023-04-26T03:21:46;4.38;;;1.90;;
52964;SDS011;42923;53.220;6.528;2023-04-26T03:24:11;9.13;;;2.42;;
52964;SDS011;42923;53.220;6.528;2023-04-26T03:26:37;8.32;;;3.08;;
52964;SDS011;42923;53.220;6.528;2023-04-26T03:29:03;12.07;;;2.63;;
52964;SDS011;42923;53.220;6.528;2023-04-26T03:31:29;5.80;;;2.72;;
52964;SDS011;42923;53.220;6.528;2023-04-26T03:33:55;3.20;;;2.15;;
52964;SDS011;42923;53.220;6.528;2023-04-26T03:36:21;8.57;;;2.25;;
52964;SDS011;42923;53.220;6.528;2023-04-26T03:38:47;4.90;;;2.30;;
52964;SDS011;42923;53.220;6.528;2023-04-26T03:41:14;5.30;;;2.50;;
52964;SDS011;42923;53.220;6.528;2023-04-26T03:43:40;6.35;;;2.10;;
52964;SDS011;42923;53.220;6.528;2023-04-26T03:46:06;11.25;;;3.10;;
52964;SDS011;42923;53.220;6.528;2023-04-26T03:48:32;7.32;;;2.10;;
52964;SDS011;42923;53.220;6.528;2023-04-26T03:50:58;6.85;;;3.35;;
52964;SDS011;42923;53.220;6.528;2023-04-26T03:53:24;6.65;;;2.53;;
52964;SDS011;42923;53.220;6.528;2023-04-26T03:55:49;5.82;;;2.20;;
52964;SDS011;42923;53.220;6.528;2023-04-26T03:58:15;4.20;;;2.30;;
52964;SDS011;42923;53.220;6.528;2023-04-26T04:00:41;9.20;;;2.50;;
52964;SDS011;42923;53.220;6.528;2023-04-26T04:03:07;8.88;;;2.15;;
52964;SDS011;42923;53.220;6.528;2023-04-26T04:05:33;4.80;;;1.90;;
52964;SDS011;42923;53.220;6.528;2023-04-26T04:08:00;5.18;;;2.08;;
52964;SDS011;42923;53.220;6.528;2023-04-26T04:10:26;4.38;;;1.90;;
52964;SDS011;42923;53.220;6.528;2023-04-26T04:12:53;4.55;;;1.80;;
52964;SDS011;42923;53.220;6.528;2023-04-26T04:15:19;4.18;;;1.63;;
52964;SDS011;42923;53.220;6.528;2023-04-26T04:17:46;7.32;;;2.13;;
52964;SDS011;42923;53.220;6.528;2023-04-26T04:20:12;3.50;;;1.50;;
52964;SDS011;42923;53.220;6.528;2023-04-26T04:22:39;1.65;;;0.93;;
52964;SDS011;42923;53.220;6.528;2023-04-26T04:25:05;5.70;;;2.30;;
52964;SDS011;42923;53.220;6.528;2023-04-26T04:27:33;5.65;;;2.28;;
52964;SDS011;42923;53.220;6.528;2023-04-26T04:30:01;6.70;;;2.65;;
52964;SDS011;42923;53.220;6.528;2023-04-26T04:32:33;11.15;;;2.70;;
52964;SDS011;42923;53.220;6.528;2023-04-26T04:35:00;7.50;;;2.80;;
52964;SDS011;42923;53.220;6.528;2023-04-26T04:37:26;2.10;;;1.48;;
52964;SDS011;42923;53.220;6.528;2023-04-26T04:39:53;14.60;;;2.60;;
52964;SDS011;42923;53.220;6.528;2023-04-26T04:42:19;8.43;;;2.42;;
52964;SDS011;42923;53.220;6.528;2023-04-26T04:44:45;8.13;;;2.75;;
52964;SDS011;42923;53.220;6.528;2023-04-26T04:47:11;5.55;;;2.78;;
52964;SDS011;42923;53.220;6.528;2023-04-26T04:49:37;5.53;;;2.72;;
52964;SDS011;42923;53.220;6.528;2023-04-26T04:52:03;5.90;;;2.75;;
52964;SDS011;42923;53.220;6.528;2023-04-26T04:54:31;8.75;;;2.47;;
52964;SDS011;42923;53.220;6.528;2023-04-26T04:56:57;4.97;;;2.95;;
52964;SDS011;42923;53.220;6.528;2023-04-26T04:59:23;5.00;;;2.42;;
52964;SDS011;42923;53.220;6.528;2023-04-26T05:01:49;5.90;;;2.63;;
52964;SDS011;42923;53.220;6.528;2023-04-26T05:04:15;9.57;;;2.53;;
52964;SDS011;42923;53.220;6.528;2023-04-26T05:06:42;8.98;;;2.90;;
52964;SDS011;42923;53.220;6.528;2023-04-26T05:09:08;11.20;;;3.40;;
52964;SDS011;42923;53.220;6.528;2023-04-26T05:11:35;10.68;;;2.88;;
52964;SDS011;42923;53.220;6.528;2023-04-26T05:14:03;11.75;;;3.00;;
52964;SDS011;42923;53.220;6.528;2023-04-26T05:16:29;11.13;;;2.65;;
52964;SDS011;42923;53.220;6.528;2023-04-26T05:18:56;7.75;;;3.65;;
52964;SDS011;42923;53.220;6.528;2023-04-26T05:21:22;7.93;;;2.97;;
52964;SDS011;42923;53.220;6.528;2023-04-26T05:23:48;8.48;;;2.97;;
52964;SDS011;42923;53.220;6.528;2023-04-26T05:26:14;6.10;;;3.15;;
52964;SDS011;42923;53.220;6.528;2023-04-26T05:28:43;6.57;;;3.03;;
52964;SDS011;42923;53.220;6.528;2023-04-26T05:31:28;10.43;;;3.00;;
52964;SDS011;42923;53.220;6.528;2023-04-26T05:33:59;8.35;;;2.78;;
52964;SDS011;42923;53.220;6.528;2023-04-26T05:36:32;10.52;;;3.03;;
52964;SDS011;42923;53.220;6.528;2023-04-26T05:38:58;5.72;;;2.65;;
52964;SDS011;42923;53.220;6.528;2023-04-26T05:41:24;6.65;;;2.65;;
52964;SDS011;42923;53.220;6.528;2023-04-26T05:43:50;5.38;;;2.50;;
52964;SDS011;42923;53.220;6.528;2023-04-26T05:46:16;6.15;;;2.28;;
52964;SDS011;42923;53.220;6.528;2023-04-26T05:48:42;7.38;;;2.83;;
52964;SDS011;42923;53.220;6.528;2023-04-26T05:51:07;9.15;;;2.55;;
52964;SDS011;42923;53.220;6.528;2023-04-26T05:53:33;5.30;;;2.65;;
52964;SDS011;42923;53.220;6.528;2023-04-26T05:55:59;5.60;;;2.90;;
52964;SDS011;42923;53.220;6.528;2023-04-26T05:58:25;6.13;;;2.88;;
52964;SDS011;42923;53.220;6.528;2023-04-26T06:00:52;8.43;;;3.17;;
52964;SDS011;42923;53.220;6.528;2023-04-26T06:03:18;10.40;;;3.20;;
52964;SDS011;42923;53.220;6.528;2023-04-26T06:05:44;7.05;;;3.17;;
52964;SDS011;42923;53.220;6.528;2023-04-26T06:08:10;6.75;;;3.08;;
52964;SDS011;42923;53.220;6.528;2023-04-26T06:10:36;7.75;;;3.10;;
52964;SDS011;42923;53.220;6.528;2023-04-26T06:13:02;7.88;;;2.75;;
52964;SDS011;42923;53.220;6.528;2023-04-26T06:15:31;10.32;;;2.80;;
52964;SDS011;42923;53.220;6.528;2023-04-26T06:17:58;5.75;;;2.63;;
52964;SDS011;42923;53.220;6.528;2023-04-26T06:20:25;4.97;;;2.50;;
52964;SDS011;42923;53.220;6.528;2023-04-26T06:22:51;5.97;;;2.58;;
52964;SDS011;42923;53.220;6.528;2023-04-26T06:25:18;4.05;;;2.40;;
52964;SDS011;42923;53.220;6.528;2023-04-26T06:27:43;4.72;;;2.53;;
52964;SDS011;42923;53.220;6.528;2023-04-26T06:30:09;3.70;;;2.35;;
52964;SDS011;42923;53.220;6.528;2023-04-26T06:32:39;6.25;;;2.75;;
52964;SDS011;42923;53.220;6.528;2023-04-26T06:35:05;5.50;;;2.47;;
52964;SDS011;42923;53.220;6.528;2023-04-26T06:37:31;3.45;;;2.03;;
52964;SDS011;42923;53.220;6.528;2023-04-26T06:39:57;3.22;;;2.03;;
52964;SDS011;42923;53.220;6.528;2023-04-26T06:42:24;5.43;;;2.40;;
52964;SDS011;42923;53.220;6.528;2023-04-26T06:45:13;3.10;;;2.20;;
52964;SDS011;42923;53.220;6.528;2023-04-26T06:47:39;6.13;;;2.45;;
52964;SDS011;42923;53.220;6.528;2023-04-26T06:50:04;3.42;;;2.03;;
52964;SDS011;42923;53.220;6.528;2023-04-26T06:52:31;6.18;;;3.20;;
52964;SDS011;42923;53.220;6.528;2023-04-26T06:54:59;7.43;;;2.30;;
52964;SDS011;42923;53.220;6.528;2023-04-26T06:57:26;2.28;;;2.00;;
52964;SDS011;42923;53.220;6.528;2023-04-26T06:59:51;4.30;;;2.10;;
52964;SDS011;42923;53.220;6.528;2023-04-26T07:02:17;11.77;;;4.22;;
52964;SDS011;42923;53.220;6.528;2023-04-26T07:04:42;9.27;;;3.22;;
52964;SDS011;42923;53.220;6.528;2023-04-26T07:07:08;4.03;;;1.77;;
52964;SDS011;42923;53.220;6.528;2023-04-26T07:09:34;5.30;;;2.10;;
52964;SDS011;42923;53.220;6.528;2023-04-26T07:11:59;4.18;;;2.15;;
52964;SDS011;42923;53.220;6.528;2023-04-26T07:14:25;8.73;;;2.70;;
52964;SDS011;42923;53.220;6.528;2023-04-26T07:16:51;6.68;;;2.80;;
52964;SDS011;42923;53.220;6.528;2023-04-26T07:19:16;7.20;;;2.47;;
52964;SDS011;42923;53.220;6.528;2023-04-26T07:21:43;8.07;;;2.60;;
52964;SDS011;42923;53.220;6.528;2023-04-26T07:24:08;5.00;;;2.30;;
52964;SDS011;42923;53.220;6.528;2023-04-26T07:26:34;9.18;;;2.53;;
52964;SDS011;42923;53.220;6.528;2023-04-26T07:29:01;4.55;;;2.28;;
52964;SDS011;42923;53.220;6.528;2023-04-26T07:31:28;4.95;;;2.38;;
52964;SDS011;42923;53.220;6.528;2023-04-26T07:33:56;5.70;;;2.45;;
52964;SDS011;42923;53.220;6.528;2023-04-26T07:36:22;4.72;;;2.08;;
52964;SDS011;42923;53.220;6.528;2023-04-26T07:38:47;3.80;;;1.75;;
52964;SDS011;42923;53.220;6.528;2023-04-26T07:41:13;7.68;;;2.70;;
52964;SDS011;42923;53.220;6.528;2023-04-26T07:43:40;4.22;;;2.70;;
52964;SDS011;42923;53.220;6.528;2023-04-26T07:46:06;5.95;;;1.88;;
52964;SDS011;42923;53.220;6.528;2023-04-26T07:48:31;7.45;;;2.67;;
52964;SDS011;42923;53.220;6.528;2023-04-26T07:51:05;4.35;;;2.00;;
52964;SDS011;42923;53.220;6.528;2023-04-26T07:53:35;8.05;;;1.95;;
52964;SDS011;42923;53.220;6.528;2023-04-26T07:56:04;6.57;;;1.98;;
52964;SDS011;42923;53.220;6.528;2023-04-26T07:58:32;6.82;;;1.80;;
52964;SDS011;42923;53.220;6.528;2023-04-26T08:00:59;9.88;;;2.63;;
52964;SDS011;42923;53.220;6.528;2023-04-26T08:03:25;10.52;;;2.63;;
52964;SDS011;42923;53.220;6.528;2023-04-26T08:05:53;11.43;;;2.40;;
52964;SDS011;42923;53.220;6.528;2023-04-26T08:08:20;5.85;;;2.33;;
52964;SDS011;42923;53.220;6.528;2023-04-26T08:10:46;4.68;;;2.38;;
52964;SDS011;42923;53.220;6.528;2023-04-26T08:13:13;7.25;;;2.47;;
52964;SDS011;42923;53.220;6.528;2023-04-26T08:15:38;9.40;;;2.10;;
52964;SDS011;42923;53.220;6.528;2023-04-26T08:18:04;6.13;;;2.70;;
52964;SDS011;42923;53.220;6.528;2023-04-26T08:20:30;11.55;;;2.63;;
52964;SDS011;42923;53.220;6.528;2023-04-26T08:22:57;8.75;;;3.20;;
52964;SDS011;42923;53.220;6.528;2023-04-26T08:25:23;3.55;;;2.28;;
52964;SDS011;42923;53.220;6.528;2023-04-26T08:27:49;7.70;;;2.38;;
52964;SDS011;42923;53.220;6.528;2023-04-26T08:30:16;6.32;;;1.92;;
52964;SDS011;42923;53.220;6.528;2023-04-26T08:32:43;9.45;;;2.75;;
52964;SDS011;42923;53.220;6.528;2023-04-26T08:35:10;3.55;;;1.45;;
52964;SDS011;42923;53.220;6.528;2023-04-26T08:37:36;9.45;;;3.25;;
52964;SDS011;42923;53.220;6.528;2023-04-26T08:40:05;7.88;;;2.33;;
52964;SDS011;42923;53.220;6.528;2023-04-26T08:42:38;4.82;;;2.70;;
52964;SDS011;42923;53.220;6.528;2023-04-26T08:45:05;6.68;;;2.15;;
52964;SDS011;42923;53.220;6.528;2023-04-26T08:50:09;9.60;;;2.10;;
52964;SDS011;42923;53.220;6.528;2023-04-26T08:52:38;7.35;;;2.38;;
52964;SDS011;42923;53.220;6.528;2023-04-26T08:55:06;5.78;;;2.05;;
52964;SDS011;42923;53.220;6.528;2023-04-26T08:57:36;3.85;;;1.80;;
52964;SDS011;42923;53.220;6.528;2023-04-26T09:00:05;8.00;;;2.05;;
52964;SDS011;42923;53.220;6.528;2023-04-26T09:02:41;9.93;;;2.47;;
52964;SDS011;42923;53.220;6.528;2023-04-26T09:05:10;6.97;;;1.80;;
52964;SDS011;42923;53.220;6.528;2023-04-26T09:10:10;5.82;;;1.95;;
52964;SDS011;42923;53.220;6.528;2023-04-26T09:12:36;8.55;;;2.63;;
52964;SDS011;42923;53.220;6.528;2023-04-26T09:15:03;6.40;;;2.67;;
52964;SDS011;42923;53.220;6.528;2023-04-26T09:17:32;10.25;;;2.67;;
52964;SDS011;42923;53.220;6.528;2023-04-26T09:20:01;5.80;;;2.80;;
52964;SDS011;42923;53.220;6.528;2023-04-26T09:22:42;7.75;;;3.17;;
52964;SDS011;42923;53.220;6.528;2023-04-26T09:25:08;8.55;;;2.38;;
52964;SDS011;42923;53.220;6.528;2023-04-26T09:27:37;8.50;;;2.38;;
52964;SDS011;42923;53.220;6.528;2023-04-26T09:32:49;5.35;;;2.40;;
52964;SDS011;42923;53.220;6.528;2023-04-26T09:35:29;7.18;;;2.92;;
52964;SDS011;42923;53.220;6.528;2023-04-26T09:37:58;7.80;;;3.05;;
52964;SDS011;42923;53.220;6.528;2023-04-26T09:40:24;10.73;;;2.42;;
52964;SDS011;42923;53.220;6.528;2023-04-26T09:42:58;11.45;;;3.38;;
52964;SDS011;42923;53.220;6.528;2023-04-26T09:45:26;9.27;;;3.38;;
52964;SDS011;42923;53.220;6.528;2023-04-26T09:47:53;13.05;;;2.88;;
52964;SDS011;42923;53.220;6.528;2023-04-26T09:50:29;8.13;;;2.67;;
52964;SDS011;42923;53.220;6.528;2023-04-26T09:52:55;8.25;;;2.63;;
52964;SDS011;42923;53.220;6.528;2023-04-26T09:55:25;9.32;;;2.38;;
52964;SDS011;42923;53.220;6.528;2023-04-26T09:57:57;6.22;;;1.75;;
52964;SDS011;42923;53.220;6.528;2023-04-26T10:00:25;6.97;;;1.58;;
52964;SDS011;42923;53.220;6.528;2023-04-26T10:02:52;4.93;;;1.50;;
52964;SDS011;42923;53.220;6.528;2023-04-26T10:05:19;7.75;;;3.10;;
52964;SDS011;42923;53.220;6.528;2023-04-26T10:07:46;3.45;;;1.45;;
52964;SDS011;42923;53.220;6.528;2023-04-26T10:10:12;4.38;;;1.23;;
52964;SDS011;42923;53.220;6.528;2023-04-26T10:12:41;6.60;;;1.40;;
52964;SDS011;42923;53.220;6.528;2023-04-26T10:15:08;7.32;;;2.83;;
52964;SDS011;42923;53.220;6.528;2023-04-26T10:17:35;9.85;;;2.33;;
52964;SDS011;42923;53.220;6.528;2023-04-26T10:20:02;6.22;;;2.35;;
52964;SDS011;42923;53.220;6.528;2023-04-26T10:22:33;6.45;;;2.25;;
52964;SDS011;42923;53.220;6.528;2023-04-26T10:25:04;7.18;;;2.40;;
52964;SDS011;42923;53.220;6.528;2023-04-26T10:40:38;6.35;;;1.52;;
52964;SDS011;42923;53.220;6.528;2023-04-26T10:45:38;4.13;;;2.03;;
52964;SDS011;42923;53.220;6.528;2023-04-26T10:53:28;3.95;;;1.73;;
52964;SDS011;42923;53.220;6.528;2023-04-26T10:55:55;7.47;;;1.40;;
52964;SDS011;42923;53.220;6.528;2023-04-26T10:58:31;5.45;;;1.35;;
52964;SDS011;42923;53.220;6.528;2023-04-26T11:01:31;4.20;;;1.20;;
52964;SDS011;42923;53.220;6.528;2023-04-26T11:06:22;1.08;;;0.90;;
52964;SDS011;42923;53.220;6.528;2023-04-26T11:08:49;3.72;;;1.40;;
52964;SDS011;42923;53.220;6.528;2023-04-26T11:11:15;3.50;;;1.90;;
52964;SDS011;42923;53.220;6.528;2023-04-26T11:13:43;4.75;;;1.50;;
52964;SDS011;42923;53.220;6.528;2023-04-26T11:16:11;4.03;;;1.25;;
52964;SDS011;42923;53.220;6.528;2023-04-26T11:18:42;7.80;;;2.50;;
52964;SDS011;42923;53.220;6.528;2023-04-26T11:21:09;2.88;;;1.40;;
52964;SDS011;42923;53.220;6.528;2023-04-26T11:23:35;3.35;;;1.30;;
52964;SDS011;42923;53.220;6.528;2023-04-26T11:26:01;3.47;;;1.20;;
52964;SDS011;42923;53.220;6.528;2023-04-26T11:28:29;1.88;;;1.55;;
52964;SDS011;42923;53.220;6.528;2023-04-26T11:30:56;3.58;;;1.98;;
52964;SDS011;42923;53.220;6.528;2023-04-26T11:33:22;3.65;;;1.50;;
52964;SDS011;42923;53.220;6.528;2023-04-26T11:35:51;2.13;;;1.52;;
52964;SDS011;42923;53.220;6.528;2023-04-26T11:38:22;1.75;;;1.20;;
52964;SDS011;42923;53.220;6.528;2023-04-26T11:40:52;3.90;;;1.55;;
52964;SDS011;42923;53.220;6.528;2023-04-26T11:43:21;2.58;;;1.13;;
52964;SDS011;42923;53.220;6.528;2023-04-26T11:45:47;3.85;;;1.58;;
52964;SDS011;42923;53.220;6.528;2023-04-26T11:48:12;2.83;;;1.88;;
52964;SDS011;42923;53.220;6.528;2023-04-26T11:50:39;5.53;;;2.03;;
52964;SDS011;42923;53.220;6.528;2023-04-26T11:53:06;4.18;;;1.80;;
52964;SDS011;42923;53.220;6.528;2023-04-26T11:55:32;4.78;;;2.00;;
52964;SDS011;42923;53.220;6.528;2023-04-26T11:57:59;2.70;;;1.45;;
52964;SDS011;42923;53.220;6.528;2023-04-26T12:00:25;2.80;;;1.67;;
52964;SDS011;42923;53.220;6.528;2023-04-26T12:02:51;3.13;;;1.20;;
52964;SDS011;42923;53.220;6.528;2023-04-26T12:05:25;2.17;;;1.63;;
52964;SDS011;42923;53.220;6.528;2023-04-26T12:07:52;3.75;;;1.08;;
52964;SDS011;42923;53.220;6.528;2023-04-26T12:10:21;7.30;;;1.40;;
52964;SDS011;42923;53.220;6.528;2023-04-26T12:12:52;4.20;;;1.50;;
52964;SDS011;42923;53.220;6.528;2023-04-26T12:15:23;3.47;;;1.42;;
52964;SDS011;42923;53.220;6.528;2023-04-26T12:17:54;7.10;;;1.80;;
52964;SDS011;42923;53.220;6.528;2023-04-26T12:20:37;6.18;;;1.30;;
52964;SDS011;42923;53.220;6.528;2023-04-26T12:25:34;1.92;;;1.27;;
52964;SDS011;42923;53.220;6.528;2023-04-26T12:28:02;5.93;;;1.80;;
52964;SDS011;42923;53.220;6.528;2023-04-26T12:30:29;3.42;;;1.52;;
52964;SDS011;42923;53.220;6.528;2023-04-26T12:33:01;4.65;;;1.45;;
52964;SDS011;42923;53.220;6.528;2023-04-26T12:35:27;4.20;;;1.60;;
52964;SDS011;42923;53.220;6.528;2023-04-26T12:37:54;7.13;;;1.48;;
52964;SDS011;42923;53.220;6.528;2023-04-26T12:40:23;4.97;;;1.88;;
52964;SDS011;42923;53.220;6.528;2023-04-26T12:42:49;8.10;;;1.55;;
52964;SDS011;42923;53.220;6.528;2023-04-26T12:45:16;6.25;;;1.80;;
52964;SDS011;42923;53.220;6.528;2023-04-26T12:47:43;6.60;;;1.33;;
52964;SDS011;42923;53.220;6.528;2023-04-26T12:50:10;3.50;;;1.58;;
52964;SDS011;42923;53.220;6.528;2023-04-26T12:52:37;3.55;;;1.30;;
52964;SDS011;42923;53.220;6.528;2023-04-26T12:55:04;3.58;;;1.60;;
52964;SDS011;42923;53.220;6.528;2023-04-26T12:57:35;6.15;;;2.10;;
52964;SDS011;42923;53.220;6.528;2023-04-26T13:00:02;4.75;;;1.67;;
52964;SDS011;42923;53.220;6.528;2023-04-26T13:02:29;7.68;;;1.40;;
52964;SDS011;42923;53.220;6.528;2023-04-26T13:04:54;5.25;;;2.00;;
52964;SDS011;42923;53.220;6.528;2023-04-26T13:07:20;2.33;;;1.35;;
52964;SDS011;42923;53.220;6.528;2023-04-26T13:09:46;3.55;;;1.80;;
52964;SDS011;42923;53.220;6.528;2023-04-26T13:12:13;4.28;;;1.70;;
52964;SDS011;42923;53.220;6.528;2023-04-26T13:14:39;9.35;;;2.53;;
52964;SDS011;42923;53.220;6.528;2023-04-26T13:17:05;7.00;;;1.42;;
52964;SDS011;42923;53.220;6.528;2023-04-26T13:19:33;4.43;;;1.33;;
52964;SDS011;42923;53.220;6.528;2023-04-26T13:22:01;2.38;;;1.33;;
52964;SDS011;42923;53.220;6.528;2023-04-26T13:24:28;3.90;;;1.73;;
52964;SDS011;42923;53.220;6.528;2023-04-26T13:26:54;7.30;;;1.73;;
52964;SDS011;42923;53.220;6.528;2023-04-26T13:29:21;3.50;;;1.38;;
52964;SDS011;42923;53.220;6.528;2023-04-26T13:31:47;5.15;;;1.50;;
52964;SDS011;42923;53.220;6.528;2023-04-26T13:34:13;3.00;;;1.70;;
52964;SDS011;42923;53.220;6.528;2023-04-26T13:36:39;8.63;;;1.88;;
52964;SDS011;42923;53.220;6.528;2023-04-26T13:39:04;3.50;;;1.52;;
52964;SDS011;42923;53.220;6.528;2023-04-26T13:41:32;2.88;;;1.63;;
52964;SDS011;42923;53.220;6.528;2023-04-26T13:43:59;5.95;;;1.40;;
52964;SDS011;42923;53.220;6.528;2023-04-26T13:46:26;5.15;;;1.45;;
52964;SDS011;42923;53.220;6.528;2023-04-26T13:48:52;4.13;;;1.85;;
52964;SDS011;42923;53.220;6.528;2023-04-26T13:51:19;6.18;;;2.35;;
52964;SDS011;42923;53.220;6.528;2023-04-26T13:53:45;4.75;;;2.60;;
52964;SDS011;42923;53.220;6.528;2023-04-26T13:56:11;5.90;;;1.60;;
52964;SDS011;42923;53.220;6.528;2023-04-26T13:58:36;5.15;;;1.77;;
52964;SDS011;42923;53.220;6.528;2023-04-26T14:01:02;2.00;;;1.38;;
52964;SDS011;42923;53.220;6.528;2023-04-26T14:03:28;7.82;;;1.50;;
52964;SDS011;42923;53.220;6.528;2023-04-26T14:05:54;5.20;;;1.77;;
52964;SDS011;42923;53.220;6.528;2023-04-26T14:08:20;7.18;;;1.92;;
52964;SDS011;42923;53.220;6.528;2023-04-26T14:10:46;3.20;;;1.50;;
52964;SDS011;42923;53.220;6.528;2023-04-26T14:13:13;6.82;;;1.70;;
52964;SDS011;42923;53.220;6.528;2023-04-26T14:15:39;4.00;;;1.88;;
52964;SDS011;42923;53.220;6.528;2023-04-26T14:18:05;6.20;;;2.42;;
52964;SDS011;42923;53.220;6.528;2023-04-26T14:20:32;5.07;;;1.80;;
52964;SDS011;42923;53.220;6.528;2023-04-26T14:22:57;5.82;;;2.00;;
52964;SDS011;42923;53.220;6.528;2023-04-26T14:25:23;7.07;;;1.90;;
52964;SDS011;42923;53.220;6.528;2023-04-26T14:27:51;7.07;;;1.95;;
52964;SDS011;42923;53.220;6.528;2023-04-26T14:30:17;7.15;;;2.65;;
52964;SDS011;42923;53.220;6.528;2023-04-26T14:32:43;5.00;;;2.03;;
52964;SDS011;42923;53.220;6.528;2023-04-26T14:35:09;2.92;;;1.67;;
52964;SDS011;42923;53.220;6.528;2023-04-26T14:37:35;5.32;;;1.77;;
52964;SDS011;42923;53.220;6.528;2023-04-26T14:40:02;4.15;;;1.60;;
52964;SDS011;42923;53.220;6.528;2023-04-26T14:42:28;4.93;;;1.70;;
52964;SDS011;42923;53.220;6.528;2023-04-26T14:44:57;5.72;;;2.13;;
52964;SDS011;42923;53.220;6.528;2023-04-26T14:47:23;7.35;;;2.10;;
52964;SDS011;42923;53.220;6.528;2023-04-26T14:49:48;9.05;;;2.10;;
52964;SDS011;42923;53.220;6.528;2023-04-26T14:52:14;4.13;;;1.65;;
52964;SDS011;42923;53.220;6.528;2023-04-26T14:54:40;3.22;;;1.50;;
52964;SDS011;42923;53.220;6.528;2023-04-26T14:57:06;6.97;;;2.05;;
52964;SDS011;42923;53.220;6.528;2023-04-26T14:59:32;1.48;;;1.38;;
52964;SDS011;42923;53.220;6.528;2023-04-26T15:01:58;5.97;;;1.85;;
52964;SDS011;42923;53.220;6.528;2023-04-26T15:04:24;6.28;;;2.15;;
52964;SDS011;42923;53.220;6.528;2023-04-26T15:06:50;4.15;;;1.90;;
52964;SDS011;42923;53.220;6.528;2023-04-26T15:09:15;5.13;;;2.10;;
52964;SDS011;42923;53.220;6.528;2023-04-26T15:11:41;6.18;;;2.20;;
52964;SDS011;42923;53.220;6.528;2023-04-26T15:14:07;3.08;;;1.88;;
52964;SDS011;42923;53.220;6.528;2023-04-26T15:16:33;5.80;;;2.30;;
52964;SDS011;42923;53.220;6.528;2023-04-26T15:18:58;3.83;;;2.03;;